createdAt,value
2018-03-17T00:00:06.488Z,93825.20
2018-03-17T00:02:34.575Z,93810.55
2018-03-17T00:05:03.299Z,93824.88
2018-03-17T00:07:31.700Z,93833.41
2018-03-17T00:10:00.060Z,93835.69
2018-03-17T00:12:28.641Z,93832.70
2018-03-17T00:14:57.048Z,93832.69
2018-03-17T00:17:25.440Z,93832.08
2018-03-17T00:19:54.606Z,93822.36
2018-03-17T00:22:22.990Z,93801.53
2018-03-17T00:24:51.376Z,93823.11
2018-03-17T00:27:19.821Z,93821.99
2018-03-17T00:29:48.275Z,93833.80
2018-03-17T00:32:16.657Z,93828.41
2018-03-17T00:34:45.060Z,93821.23
2018-03-17T00:37:13.481Z,93819.51
2018-03-17T00:39:41.836Z,93817.84
2018-03-17T00:42:10.257Z,93824.33
2018-03-17T00:44:38.677Z,93813.97
2018-03-17T00:47:07.088Z,93817.99
2018-03-17T00:49:35.739Z,93817.66
2018-03-17T00:52:04.125Z,93809.16
2018-03-17T00:54:32.515Z,93805.23
2018-03-17T00:57:01.176Z,93816.50
2018-03-17T00:59:29.595Z,93803.95
2018-03-17T01:01:57.953Z,93796.87
2018-03-17T01:04:26.815Z,93796.67
2018-03-17T01:06:55.213Z,93800.23
2018-03-17T01:09:23.581Z,93788.39
2018-03-17T01:11:51.993Z,93798.05
2018-03-17T01:14:20.395Z,93775.73
2018-03-17T01:16:48.869Z,93786.34
2018-03-17T01:19:17.242Z,93792.42
2018-03-17T01:21:45.641Z,93802.67
2018-03-17T01:24:14.082Z,93798.19
2018-03-17T01:26:42.457Z,93791.59
2018-03-17T01:29:10.895Z,93803.56
2018-03-17T01:31:39.329Z,93797.56
2018-03-17T01:34:07.771Z,93788.46
2018-03-17T01:36:36.184Z,93794.42
2018-03-17T01:39:04.637Z,93786.07
2018-03-17T01:41:33.020Z,93785.50
2018-03-17T01:44:01.420Z,93785.66
2018-03-17T01:46:29.842Z,93793.38
2018-03-17T01:48:58.249Z,93797.20
2018-03-17T01:51:26.664Z,93802.68
2018-03-17T01:54:07.000Z,93783.89
2018-03-17T01:56:35.396Z,93805.02
2018-03-17T01:59:03.816Z,93790.34
2018-03-17T02:01:32.169Z,93800.44
2018-03-17T02:04:00.633Z,93802.63
2018-03-17T02:06:29.034Z,93746.64
2018-03-17T02:08:57.430Z,93783.58
2018-03-17T02:11:25.803Z,93791.69
2018-03-17T02:13:54.196Z,93779.42
2018-03-17T02:16:22.592Z,93767.56
2018-03-17T02:18:51.003Z,93778.78
2018-03-17T02:21:19.380Z,93778.30
2018-03-17T02:23:47.805Z,93773.09
2018-03-17T02:26:16.185Z,93780.67
2018-03-17T02:28:44.845Z,93789.09
2018-03-17T02:31:13.283Z,93795.38
2018-03-17T02:33:41.713Z,93778.59
2018-03-17T02:36:10.092Z,93789.30
2018-03-17T02:38:38.549Z,93788.52
2018-03-17T02:41:06.923Z,93795.78
2018-03-17T02:43:35.358Z,93794.52
2018-03-17T02:46:03.793Z,93787.41
2018-03-17T02:48:32.207Z,93783.34
2018-03-17T02:51:00.672Z,93787.20
2018-03-17T02:53:29.073Z,93786.38
2018-03-17T02:55:57.441Z,93792.13
2018-03-17T02:58:25.862Z,93790.33
2018-03-17T03:00:54.246Z,93777.31
2018-03-17T03:03:22.656Z,93781.52
2018-03-17T03:05:51.071Z,93784.69
2018-03-17T03:08:19.452Z,93785.84
2018-03-17T03:10:47.888Z,93794.81
2018-03-17T03:13:16.329Z,93798.48
2018-03-17T03:15:44.736Z,93797.99
2018-03-17T03:18:13.124Z,93805.42
2018-03-17T03:20:41.504Z,93799.16
2018-03-17T03:23:09.915Z,93810.58
2018-03-17T03:25:38.283Z,93820.14
2018-03-17T03:28:06.724Z,93820.37
2018-03-17T03:30:35.115Z,93812.63
2018-03-17T03:33:03.540Z,93815.51
2018-03-17T03:35:31.950Z,93820.21
2018-03-17T03:38:00.313Z,93812.22
2018-03-17T03:40:28.740Z,93811.11
2018-03-17T03:42:57.148Z,93803.47
2018-03-17T03:45:25.515Z,93802.84
2018-03-17T03:47:53.932Z,93802.88
2018-03-17T03:50:22.367Z,93809.34
2018-03-17T03:52:50.768Z,93818.03
2018-03-17T03:55:19.148Z,93803.05
2018-03-17T03:57:47.584Z,93812.65
2018-03-17T04:00:16.156Z,93804.36
2018-03-17T04:02:44.603Z,93809.00
2018-03-17T04:05:13.013Z,93792.91
2018-03-17T04:07:41.455Z,93804.59
2018-03-17T04:10:09.847Z,93802.11
2018-03-17T04:12:38.248Z,93792.62
2018-03-17T04:15:06.709Z,93808.23
2018-03-17T04:17:35.127Z,93793.05
2018-03-17T04:20:03.512Z,93796.14
2018-03-17T04:22:31.932Z,93788.25
2018-03-17T04:25:00.300Z,93765.22
2018-03-17T04:27:28.725Z,93795.23
2018-03-17T04:29:57.109Z,93791.16
2018-03-17T04:32:25.525Z,93796.13
2018-03-17T04:34:54.003Z,93776.44
2018-03-17T04:37:22.399Z,93797.93
2018-03-17T04:39:50.830Z,93796.42
2018-03-17T04:42:19.216Z,93797.77
2018-03-17T04:44:47.675Z,93783.63
2018-03-17T04:47:16.141Z,93795.77
2018-03-17T04:49:44.592Z,93791.17
2018-03-17T04:52:12.961Z,93765.99
2018-03-17T04:54:41.344Z,93782.14
2018-03-17T04:57:09.773Z,93782.25
2018-03-17T04:59:38.142Z,93763.86
2018-03-17T05:02:06.624Z,93784.38
2018-03-17T05:04:35.129Z,93780.43
2018-03-17T05:07:03.552Z,93780.80
2018-03-17T05:09:31.967Z,93776.98
2018-03-17T05:12:00.381Z,93779.38
2018-03-17T05:14:28.800Z,93768.25
2018-03-17T05:16:57.214Z,93774.86
2018-03-17T05:19:25.666Z,93774.18
2018-03-17T05:21:54.124Z,93754.81
2018-03-17T05:24:22.536Z,93741.58
2018-03-17T05:26:50.952Z,93746.74
2018-03-17T05:29:19.337Z,93752.22
2018-03-17T05:31:47.795Z,93754.59
2018-03-17T05:34:16.171Z,93738.31
2018-03-17T05:36:44.712Z,93731.89
2018-03-17T05:39:13.116Z,93748.86
2018-03-17T05:41:41.536Z,93749.41
2018-03-17T05:44:09.920Z,93742.65
2018-03-17T05:46:38.332Z,93738.50
2018-03-17T05:49:06.859Z,93749.66
2018-03-17T05:51:35.313Z,93745.05
2018-03-17T05:54:03.700Z,93725.50
2018-03-17T05:56:32.114Z,93731.00
2018-03-17T05:59:00.484Z,93740.14
2018-03-17T06:01:28.957Z,93750.97
2018-03-17T06:03:57.377Z,93734.79
2018-03-17T06:06:25.826Z,93712.98
2018-03-17T06:08:54.262Z,93726.45
2018-03-17T06:11:22.638Z,93713.95
2018-03-17T06:13:51.087Z,93716.00
2018-03-17T06:16:19.449Z,93718.92
2018-03-17T06:18:47.890Z,93721.98
2018-03-17T06:21:16.317Z,93734.22
2018-03-17T06:23:44.717Z,93738.17
2018-03-17T06:26:13.170Z,93753.95
2018-03-17T06:28:41.569Z,93735.95
2018-03-17T06:31:09.993Z,93761.55
2018-03-17T06:33:38.440Z,93753.52
2018-03-17T06:36:06.904Z,93744.54
2018-03-17T06:38:35.337Z,93754.40
2018-03-17T06:41:03.773Z,93760.67
2018-03-17T06:43:32.227Z,93762.75
2018-03-17T06:46:00.621Z,93752.14
2018-03-17T06:48:29.082Z,93746.30
2018-03-17T06:50:57.444Z,93735.34
2018-03-17T06:53:25.866Z,93726.81
2018-03-17T06:55:54.285Z,93732.59
2018-03-17T06:58:22.700Z,93738.07
2018-03-17T07:00:51.093Z,93741.13
2018-03-17T07:03:19.575Z,93741.77
2018-03-17T07:05:47.974Z,93746.61
2018-03-17T07:08:16.387Z,93733.85
2018-03-17T07:10:44.828Z,93731.95
2018-03-17T07:13:13.285Z,93733.30
2018-03-17T07:15:41.685Z,93744.54
2018-03-17T07:18:10.089Z,93759.84
2018-03-17T07:20:38.706Z,93750.78
2018-03-17T07:23:07.537Z,93745.53
2018-03-17T07:25:35.964Z,93726.66
2018-03-17T07:28:04.368Z,93727.48
2018-03-17T07:30:32.729Z,93738.34
2018-03-17T07:33:01.565Z,93718.03
2018-03-17T07:35:29.953Z,93733.07
2018-03-17T07:37:58.354Z,93718.80
2018-03-17T07:40:26.784Z,93730.72
2018-03-17T07:42:55.171Z,93734.61
2018-03-17T07:45:23.547Z,93715.45
2018-03-17T07:47:52.442Z,93724.31
2018-03-17T07:50:21.172Z,93738.38
2018-03-17T07:52:49.968Z,93715.70
2018-03-17T07:55:18.997Z,93714.81
2018-03-17T07:57:47.957Z,93707.06
2018-03-17T08:00:17.219Z,93708.03
2018-03-17T08:02:46.049Z,93723.68
2018-03-17T08:05:14.438Z,93700.76
2018-03-17T08:07:42.797Z,93694.73
2018-03-17T08:10:11.248Z,93702.98
2018-03-17T08:12:39.657Z,93686.29
2018-03-17T08:15:08.419Z,93693.06
2018-03-17T08:17:36.824Z,93709.16
2018-03-17T08:20:05.205Z,93694.70
2018-03-17T08:22:33.701Z,93675.13
2018-03-17T08:25:02.128Z,93686.20
2018-03-17T08:27:30.569Z,93669.03
2018-03-17T08:29:59.028Z,93667.22
2018-03-17T08:32:27.822Z,93656.06
2018-03-17T08:34:56.245Z,93657.03
2018-03-17T08:37:25.444Z,93654.02
2018-03-17T08:39:53.855Z,93659.69
2018-03-17T08:42:22.333Z,93618.49
2018-03-17T08:44:50.815Z,93597.56
2018-03-17T08:47:19.204Z,93605.80
2018-03-17T08:49:48.269Z,93607.23
2018-03-17T08:52:16.645Z,93606.26
2018-03-17T08:54:46.199Z,93596.88
2018-03-17T08:57:14.745Z,93605.53
2018-03-17T08:59:43.118Z,93586.03
2018-03-17T09:02:11.902Z,93581.98
2018-03-17T09:04:40.334Z,93581.02
2018-03-17T09:07:08.767Z,93576.81
2018-03-17T09:09:37.142Z,93559.94
2018-03-17T09:12:05.630Z,93552.91
2018-03-17T09:14:34.062Z,93548.58
2018-03-17T09:17:02.590Z,93541.34
2018-03-17T09:19:31.595Z,93543.05
2018-03-17T09:22:00.065Z,93543.86
2018-03-17T09:24:28.576Z,93525.99
2018-03-17T09:26:56.985Z,93529.61
2018-03-17T09:29:26.379Z,93529.82
2018-03-17T09:31:54.954Z,93524.83
2018-03-17T09:34:24.232Z,93527.38
2018-03-17T09:36:52.687Z,93517.63
2018-03-17T09:39:21.206Z,93511.43
2018-03-17T09:41:49.841Z,93470.34
2018-03-17T09:44:19.389Z,93488.03
2018-03-17T09:46:47.785Z,93465.15
2018-03-17T09:49:16.177Z,93479.14
2018-03-17T09:51:44.918Z,93472.82
2018-03-17T09:54:13.431Z,93477.18
2018-03-17T09:56:41.850Z,93456.70
2018-03-17T09:59:10.487Z,93458.36
2018-03-17T10:01:38.909Z,93464.86
2018-03-17T10:04:07.327Z,93430.20
2018-03-17T10:06:35.757Z,93431.19
2018-03-17T10:09:04.289Z,93423.26
2018-03-17T10:11:32.667Z,93398.63
2018-03-17T10:14:01.492Z,93415.42
2018-03-17T10:16:29.976Z,93409.17
2018-03-17T10:18:58.404Z,93407.11
2018-03-17T10:21:26.995Z,93413.10
2018-03-17T10:23:55.418Z,93357.64
2018-03-17T10:26:23.841Z,93374.89
2018-03-17T10:28:52.597Z,93367.05
2018-03-17T10:31:20.987Z,93334.88
2018-03-17T10:33:49.341Z,93337.66
2018-03-17T10:36:17.790Z,93317.20
2018-03-17T10:38:46.184Z,93295.41
2018-03-17T10:41:14.632Z,93295.97
2018-03-17T10:43:43.267Z,93285.57
2018-03-17T10:46:11.766Z,93285.90
2018-03-17T10:48:40.144Z,93270.11
2018-03-17T10:51:08.776Z,93266.43
2018-03-17T10:53:38.687Z,93262.10
2018-03-17T10:56:07.128Z,93252.64
2018-03-17T10:58:35.914Z,93226.14
2018-03-17T11:01:09.776Z,93237.91
2018-03-17T11:03:38.509Z,93246.05
2018-03-17T11:06:07.181Z,93228.84
2018-03-17T11:08:35.553Z,93223.17
2018-03-17T11:11:04.006Z,93253.45
2018-03-17T11:13:32.379Z,93234.11
2018-03-17T11:16:01.435Z,93206.67
2018-03-17T11:18:29.928Z,93216.21
2018-03-17T11:20:58.352Z,93233.21
2018-03-17T11:23:26.783Z,93220.58
2018-03-17T11:25:55.254Z,93217.11
2018-03-17T11:28:23.714Z,93234.45
2018-03-17T11:30:52.130Z,93248.51
2018-03-17T11:33:20.772Z,93260.81
2018-03-17T11:35:49.164Z,93278.52
2018-03-17T11:38:17.584Z,93270.87
2018-03-17T11:40:46.066Z,93257.63
2018-03-17T11:43:14.451Z,93229.34
2018-03-17T11:45:42.868Z,93210.17
2018-03-17T11:48:11.262Z,93185.45
2018-03-17T11:50:39.660Z,93220.58
2018-03-17T11:53:08.045Z,93184.80
2018-03-17T11:55:36.503Z,93195.98
2018-03-17T11:58:05.008Z,93158.28
2018-03-17T12:00:33.557Z,93163.03
2018-03-17T12:03:01.977Z,93143.53
2018-03-17T12:05:30.400Z,93125.70
2018-03-17T12:07:58.796Z,93139.28
2018-03-17T12:10:27.240Z,93136.91
2018-03-17T12:12:55.632Z,93125.30
2018-03-17T12:15:24.036Z,93110.91
2018-03-17T12:17:52.447Z,93096.88
2018-03-17T12:20:20.814Z,93106.27
2018-03-17T12:22:49.247Z,93068.13
2018-03-17T12:25:17.632Z,93031.00
2018-03-17T12:27:46.004Z,93081.30
2018-03-17T12:30:14.437Z,93094.83
2018-03-17T12:32:42.857Z,93089.20
2018-03-17T12:35:11.290Z,93051.47
2018-03-17T12:37:39.689Z,93056.41
2018-03-17T12:40:08.078Z,93048.75
2018-03-17T12:42:36.478Z,93084.16
2018-03-17T12:45:05.264Z,93042.59
2018-03-17T12:47:33.662Z,93051.94
2018-03-17T12:50:02.192Z,93049.78
2018-03-17T12:52:30.610Z,93014.51
2018-03-17T12:54:59.011Z,93022.58
2018-03-17T12:57:27.393Z,93009.28
2018-03-17T12:59:56.029Z,93065.94
2018-03-17T13:02:24.406Z,93050.42
2018-03-17T13:04:52.786Z,93022.69
2018-03-17T13:07:21.217Z,93005.72
2018-03-17T13:09:49.665Z,92959.84
2018-03-17T13:12:18.035Z,92964.00
2018-03-17T13:14:46.493Z,92992.52
2018-03-17T13:17:14.889Z,93026.14
2018-03-17T13:19:43.302Z,93013.69
2018-03-17T13:22:11.685Z,92969.56
2018-03-17T13:24:40.225Z,92949.17
2018-03-17T13:27:20.507Z,92994.86
2018-03-17T13:29:48.924Z,92971.75
2018-03-17T13:32:29.151Z,92987.22
2018-03-17T13:34:57.536Z,92951.23
2018-03-17T13:37:38.112Z,92967.18
2018-03-17T13:40:18.476Z,92968.34
2018-03-17T13:42:46.884Z,92944.45
2018-03-17T13:45:18.889Z,92961.17
2018-03-17T13:47:47.405Z,92946.16
2018-03-17T13:50:15.786Z,92970.17
2018-03-17T13:52:44.171Z,92983.23
2018-03-17T13:55:12.567Z,92930.63
2018-03-17T13:57:40.996Z,92971.28
2018-03-17T14:00:09.396Z,92937.75
2018-03-17T14:02:37.803Z,92947.74
2018-03-17T14:05:06.210Z,92961.38
2018-03-17T14:07:34.740Z,92947.11
2018-03-17T14:10:03.180Z,92952.92
2018-03-17T14:12:31.670Z,92926.20
2018-03-17T14:15:00.081Z,92929.97
2018-03-17T14:17:28.497Z,92890.79
2018-03-17T14:19:56.933Z,92957.77
2018-03-17T14:22:25.289Z,92916.82
2018-03-17T14:24:53.717Z,92920.70
2018-03-17T14:27:22.133Z,92953.77
2018-03-17T14:29:50.508Z,92915.47
2018-03-17T14:32:18.919Z,92950.48
2018-03-17T14:34:47.271Z,92940.72
2018-03-17T14:37:15.681Z,92943.62
2018-03-17T14:39:44.093Z,92964.00
2018-03-17T14:42:12.508Z,92929.18
2018-03-17T14:44:40.960Z,92963.36
2018-03-17T14:47:10.155Z,92937.05
2018-03-17T14:49:38.544Z,92969.69
2018-03-17T14:52:06.938Z,92937.70
2018-03-17T14:54:35.397Z,92946.11
2018-03-17T14:57:03.762Z,92978.06
2018-03-17T14:59:32.177Z,92984.52
2018-03-17T15:02:00.560Z,92956.65
2018-03-17T15:04:28.986Z,92974.48
2018-03-17T15:06:57.344Z,92944.38
2018-03-17T15:09:25.745Z,92944.36
2018-03-17T15:11:54.177Z,92916.46
2018-03-17T15:14:22.680Z,92942.33
2018-03-17T15:16:51.041Z,92932.42
2018-03-17T15:19:19.484Z,92913.35
2018-03-17T15:21:47.842Z,92934.20
2018-03-17T15:24:16.252Z,92948.28
2018-03-17T15:26:44.750Z,92967.23
2018-03-17T15:29:13.160Z,92919.40
2018-03-17T15:31:41.537Z,92914.58
2018-03-17T15:34:09.940Z,92917.51
2018-03-17T15:36:38.320Z,92913.44
2018-03-17T15:39:07.753Z,92913.44
2018-03-17T15:41:36.217Z,92922.11
2018-03-17T15:44:04.676Z,92899.13
2018-03-17T15:46:33.081Z,92909.05
2018-03-17T15:49:01.454Z,92917.48
2018-03-17T15:51:29.852Z,92948.06
2018-03-17T15:53:58.216Z,92899.56
2018-03-17T15:56:26.580Z,92898.33
2018-03-17T15:58:54.972Z,92930.53
2018-03-17T16:01:23.418Z,92913.58
2018-03-17T16:03:51.852Z,92905.39
2018-03-17T16:06:20.316Z,92906.21
2018-03-17T16:08:48.681Z,92893.45
2018-03-17T16:11:17.093Z,92926.51
2018-03-17T16:13:45.453Z,92933.20
2018-03-17T16:16:13.903Z,92943.76
2018-03-17T16:18:42.264Z,92939.11
2018-03-17T16:21:10.956Z,92930.48
2018-03-17T16:23:39.335Z,92967.70
2018-03-17T16:26:07.696Z,92966.55
2018-03-17T16:28:36.093Z,92964.38
2018-03-17T16:31:04.460Z,92953.56
2018-03-17T16:33:32.862Z,92975.73
2018-03-17T16:36:01.226Z,92987.92
2018-03-17T16:38:29.620Z,92985.38
2018-03-17T16:40:57.988Z,93012.64
2018-03-17T16:43:26.533Z,92942.05
2018-03-17T16:45:54.988Z,93012.84
2018-03-17T16:48:23.340Z,92953.51
2018-03-17T16:50:51.704Z,93000.98
2018-03-17T16:53:20.115Z,92923.88
2018-03-17T16:55:48.481Z,92964.52
2018-03-17T16:58:16.921Z,92984.67
2018-03-17T17:00:45.336Z,92990.89
2018-03-17T17:03:13.752Z,92999.59
2018-03-17T17:05:42.157Z,92988.08
2018-03-17T17:08:10.515Z,92938.66
2018-03-17T17:10:38.920Z,92992.53
2018-03-17T17:13:07.280Z,92963.78
2018-03-17T17:15:35.692Z,93002.72
2018-03-17T17:18:04.067Z,92983.99
2018-03-17T17:20:32.527Z,93004.23
2018-03-17T17:23:00.897Z,93000.74
2018-03-17T17:25:29.308Z,93015.65
2018-03-17T17:27:57.711Z,92999.30
2018-03-17T17:30:26.072Z,93034.20
2018-03-17T17:32:54.425Z,93063.07
2018-03-17T17:35:22.816Z,92989.46
2018-03-17T17:37:51.177Z,93028.78
2018-03-17T17:40:19.573Z,93042.81
2018-03-17T17:42:47.984Z,93037.45
2018-03-17T17:45:16.416Z,93037.64
2018-03-17T17:47:44.896Z,93053.66
2018-03-17T17:50:13.256Z,93038.30
2018-03-17T17:52:41.645Z,93047.50
2018-03-17T17:55:10.102Z,93059.71
2018-03-17T17:57:38.490Z,93040.84
2018-03-17T18:00:06.895Z,93039.00
2018-03-17T18:02:35.284Z,93048.26
2018-03-17T18:05:03.657Z,93034.66
2018-03-17T18:07:32.060Z,93015.45
2018-03-17T18:10:00.452Z,93048.42
2018-03-17T18:12:28.876Z,93023.34
2018-03-17T18:14:57.236Z,93054.05
2018-03-17T18:17:25.642Z,93093.50
2018-03-17T18:19:54.002Z,93086.01
2018-03-17T18:22:22.399Z,93085.73
2018-03-17T18:24:50.765Z,93104.45
2018-03-17T18:27:19.163Z,93066.57
2018-03-17T18:29:47.536Z,93069.71
2018-03-17T18:32:16.080Z,93040.70
2018-03-17T18:34:44.433Z,93088.16
2018-03-17T18:37:12.845Z,93100.01
2018-03-17T18:39:41.206Z,93067.27
2018-03-17T18:42:09.581Z,93084.14
2018-03-17T18:44:38.008Z,93085.61
2018-03-17T18:47:06.537Z,93065.13
2018-03-17T18:49:35.003Z,93039.18
2018-03-17T18:52:03.473Z,93060.93
2018-03-17T18:54:31.872Z,93076.19
2018-03-17T18:57:00.235Z,93055.64
2018-03-17T18:59:28.628Z,93070.83
2018-03-17T19:01:57.025Z,93058.66
2018-03-17T19:04:25.429Z,93047.33
2018-03-17T19:06:53.830Z,93036.59
2018-03-17T19:09:22.253Z,93013.73
2018-03-17T19:11:50.613Z,93001.63
2018-03-17T19:14:19.008Z,92970.80
2018-03-17T19:16:47.367Z,93004.31
2018-03-17T19:19:15.764Z,92989.94
2018-03-17T19:21:44.160Z,92995.23
2018-03-17T19:24:12.583Z,92985.83
2018-03-17T19:26:40.949Z,93005.20
2018-03-17T19:29:09.365Z,92996.23
2018-03-17T19:31:37.725Z,92971.34
2018-03-17T19:34:06.139Z,93008.05
2018-03-17T19:36:34.496Z,93010.53
2018-03-17T19:39:02.883Z,92993.75
2018-03-17T19:41:31.291Z,92951.14
2018-03-17T19:43:59.728Z,92959.02
2018-03-17T19:46:28.152Z,92959.42
2018-03-17T19:48:56.512Z,92957.39
2018-03-17T19:51:24.997Z,92973.26
2018-03-17T19:53:53.484Z,92991.72
2018-03-17T19:56:22.294Z,92978.67
2018-03-17T19:58:50.652Z,92977.63
2018-03-17T20:01:19.069Z,92914.70
2018-03-17T20:03:47.476Z,92937.61
2018-03-17T20:06:15.840Z,92931.55
2018-03-17T20:08:44.308Z,92967.26
2018-03-17T20:11:12.725Z,92954.11
2018-03-17T20:13:41.107Z,92954.27
2018-03-17T20:16:09.473Z,92936.30
2018-03-17T20:18:37.865Z,92948.38
2018-03-17T20:21:06.245Z,92950.22
2018-03-17T20:23:34.676Z,92899.91
2018-03-17T20:26:03.053Z,92898.75
2018-03-17T20:28:31.452Z,92904.07
2018-03-17T20:30:59.813Z,92902.42
2018-03-17T20:33:28.407Z,92937.13
2018-03-17T20:35:56.756Z,92948.02
2018-03-17T20:38:25.125Z,92912.13
2018-03-17T20:40:53.516Z,92935.84
2018-03-17T20:43:22.640Z,92904.20
2018-03-17T20:45:51.057Z,92925.53
2018-03-17T20:48:19.406Z,92910.17
2018-03-17T20:50:48.520Z,92919.28
2018-03-17T20:53:16.918Z,92901.11
2018-03-17T20:55:45.288Z,92933.14
2018-03-17T20:58:13.685Z,92934.55
2018-03-17T21:00:42.044Z,92920.83
2018-03-17T21:03:10.448Z,92912.52
2018-03-17T21:05:38.833Z,92926.94
2018-03-17T21:08:07.245Z,92893.16
2018-03-17T21:10:35.656Z,92915.86
2018-03-17T21:13:04.079Z,92881.23
2018-03-17T21:15:32.442Z,92879.95
2018-03-17T21:18:00.801Z,92892.92
2018-03-17T21:20:29.216Z,92913.25
2018-03-17T21:22:57.589Z,92862.41
2018-03-17T21:25:26.137Z,92895.18
2018-03-17T21:27:54.559Z,92870.86
2018-03-17T21:30:22.938Z,92790.60
2018-03-17T21:32:51.337Z,92903.33
2018-03-17T21:35:19.724Z,92884.78
2018-03-17T21:37:48.249Z,92908.32
2018-03-17T21:40:16.646Z,92894.19
2018-03-17T21:42:45.009Z,92868.93
2018-03-17T21:45:13.421Z,92872.80
2018-03-17T21:47:41.914Z,92887.91
2018-03-17T21:50:10.399Z,92840.39
2018-03-17T21:52:38.848Z,92867.67
2018-03-17T21:55:07.254Z,92880.88
2018-03-17T21:57:35.644Z,92875.48
2018-03-17T22:00:04.132Z,92840.66
2018-03-17T22:02:32.544Z,92853.63
2018-03-17T22:05:00.906Z,92870.23
2018-03-17T22:07:30.113Z,92881.56
2018-03-17T22:09:58.547Z,92834.73
2018-03-17T22:12:26.989Z,92851.57
2018-03-17T22:14:55.347Z,92841.95
2018-03-17T22:17:23.702Z,92843.84
2018-03-17T22:19:52.096Z,92837.62
2018-03-17T22:22:20.455Z,92792.75
2018-03-17T22:24:48.870Z,92842.50
2018-03-17T22:27:17.250Z,92831.56
2018-03-17T22:29:45.633Z,92820.08
2018-03-17T22:32:14.040Z,92844.26
2018-03-17T22:34:42.411Z,92854.50
2018-03-17T22:37:10.965Z,92848.50
2018-03-17T22:39:39.329Z,92821.72
2018-03-17T22:42:07.696Z,92836.45
2018-03-17T22:44:36.134Z,92832.65
2018-03-17T22:47:04.488Z,92817.75
2018-03-17T22:49:32.888Z,92835.23
2018-03-17T22:52:01.289Z,92846.95
2018-03-17T22:54:29.651Z,92836.23
2018-03-17T22:56:58.267Z,92778.00
2018-03-17T22:59:26.697Z,92850.65
2018-03-17T23:01:55.100Z,92836.62
2018-03-17T23:04:23.510Z,92765.52
2018-03-17T23:06:51.881Z,92860.52
2018-03-17T23:09:20.287Z,92885.46
2018-03-17T23:11:48.661Z,92865.50
2018-03-17T23:14:17.040Z,92857.28
2018-03-17T23:16:45.442Z,92857.30
2018-03-17T23:19:13.805Z,92843.11
2018-03-17T23:21:42.214Z,92870.95
2018-03-17T23:24:10.577Z,92838.72
2018-03-17T23:26:38.943Z,92888.27
2018-03-17T23:29:07.335Z,92862.66
2018-03-17T23:31:35.688Z,92891.26
2018-03-17T23:34:04.184Z,92927.46
2018-03-17T23:36:32.655Z,92897.29
2018-03-17T23:39:01.048Z,92888.65
2018-03-17T23:41:29.470Z,92852.03
2018-03-17T23:43:58.001Z,92863.48
2018-03-17T23:46:26.358Z,92876.67
2018-03-17T23:48:54.764Z,92863.68
2018-03-17T23:51:23.135Z,92877.49
2018-03-17T23:53:51.550Z,92874.30
2018-03-17T23:56:19.959Z,92888.04
2018-03-17T23:58:48.358Z,92852.03
